2019 Melt the Trail Age Group Results

Thanks to Presenting Sponsor Centier Bank





2019 Melt the Trail 5k & 10k


Age Group Results


February 23, 2019




Results by RaceMaker Productions LLC www.racemaker.org



5k Men: Top Finishers 1-19 20-29 30-39 40-49 50-59 60-69 70-99

5k Women: Top Finishers 1-19 20-29 30-39 40-49 50-59 60-69 70-99

10k Men: Top Finishers 0- 0 1-19 20-29 30-39 40-49 50-59 60-69 70-99

10k Women: Top Finishers 1-19 20-29 30-39 40-49 50-59

5k

Top

Female Open Winners

Place Name Team Bib No Age Overall Total Time Pace
1 Janelle Renschler 5942 42 11 21:13.54 6:51/M
Top

Female 19 and Under

Place Name Team Bib No Age Overall Total Time Pace
1 Gianna Ferreri 5738 11 17 22:27.67 7:15/M
2 Katelyn Wasson 5691 16 44 25:28.04 8:13/M
3 Mallory Hopper 5767 13 46 25:40.10 8:17/M
4 Felicia Sanders 4972 15 57 27:01.89 8:43/M
5 Bailey Turner 5952 16 84 28:37.18 9:14/M
6 Abby Wyant 4952 19 91 29:29.19 9:31/M
7 Amy Pictor 5939 18 107 31:18.26 10:06/M
8 Ruthie Hostetler 3574 13 111 31:57.10 10:18/M
9 Emma Niziolek 5756 6 119 32:52.43 10:36/M
10 Casey Dewitt 5780 14 121 32:55.31 10:37/M
11 Cheyenne Elizondo 5712 12 139 36:08.79 11:39/M
12 Hallie Kemper 5786 9 186 47:15.72 15:15/M
13 Emma Maskell 6000 15 229 55:29.84 17:54/M
Top

Female 20 to 29

Place Name Team Bib No Age Overall Total Time Pace
1 Erin Pannell 5936 26 15 22:07.61 7:08/M
2 Kelley Miller 5933 29 36 24:14.89 7:49/M
3 Naomi Keizer 5814 26 45 25:38.57 8:16/M
4 Rachel Hudson 5798 25 47 25:45.49 8:18/M
5 Cara Sandlin 5852 28 50 26:08.97 8:26/M
6 Maryah Silver 5962 27 52 26:37.81 8:35/M
7 Taylor Rasmussen 5763 22 54 26:46.82 8:38/M
8 Shannon Owen 5879 28 78 28:25.23 9:10/M
9 Kylie Miller 5881 27 79 28:25.28 9:10/M
10 Mariah Lovins 5866 26 83 28:35.30 9:13/M
11 Jaclyn Heinz 4953 25 87 29:01.41 9:22/M
12 Sara Benzinger 5789 25 98 29:55.48 9:39/M
13 Jessica Janicky 5846 28 103 30:57.89 9:59/M
14 Renee Becker-Blau 5895 28 116 32:26.32 10:28/M
15 Rachel Tonne 5747 21 123 33:11.90 10:42/M
16 Kara Hacker 4980 23 133 35:02.15 11:18/M
17 Michell Henning 4998 23 137 35:52.98 11:34/M
18 Maryah Silver 5778 27 144 36:51.55 11:53/M
19 Lauren Wilson 5868 24 160 39:55.54 12:53/M
20 Hanna Miller 5757 28 161 40:08.99 12:57/M
21 Zoe Temple 5689 24 162 40:45.88 13:09/M
Top

Female 30 to 39

Place Name Team Bib No Age Overall Total Time Pace
1 Kristin Hendricks 4958 37 27 23:30.33 7:35/M
2 Lacee Moore 5934 32 29 23:36.26 7:37/M
3 Lauren Bailey 5830 37 34 24:13.73 7:49/M
4 Ashley Maue 5701 30 86 28:53.50 9:19/M
5 Amber Bollman 5909 39 94 29:43.72 9:35/M
6 Lisa Vos 5842 38 112 32:07.00 10:22/M
7 Christina Jennings 5921 34 117 32:50.85 10:35/M
8 Emily Glover 5860 31 126 33:50.20 10:55/M
9 Adrienne Elizondo 5713 39 129 34:25.48 11:06/M
10 Brandi Johnson 4987 39 131 34:40.75 11:11/M
11 Kelsie Duggan 5734 37 135 35:30.24 11:27/M
12 Jennifer Schue 5732 36 138 35:58.08 11:36/M
13 Suphansa Gunn 5917 33 148 37:45.69 12:11/M
14 Alicyn Truemper 4979 30 149 38:09.12 12:18/M
15 Meghan Rivard 4964 32 151 38:30.48 12:25/M
16 Colleen Watson 5718 37 153 38:35.30 12:27/M
17 Jennifer Platte 5837 37 155 39:01.88 12:35/M
18 Laura Amonette 5853 38 158 39:39.93 12:47/M
19 Tara Pigg 5762 36 159 39:47.05 12:50/M
20 Lisa Roush 4989 39 170 42:42.52 13:46/M
21 Stephanie Doane 5727 39 180 45:14.44 14:35/M
22 Cassie Hull 5679 36 181 45:14.81 14:35/M
23 Angela Boyd 3870 38 182 45:37.90 14:43/M
24 Casey Walker 5677 34 192 48:24.95 15:37/M
25 Melissa Humburg 4809 37 195 48:34.86 15:40/M
26 Kristen Meehan 4700 36 198 48:57.32 15:47/M
27 Molly Fetzer 4815 37 199 48:59.17 15:48/M
28 Shelly Murray 4999 38 214 51:47.15 16:42/M
Top

Female 40 to 49

Place Name Team Bib No Age Overall Total Time Pace
1 KARA HOUSE 5880 40 37 24:20.69 7:51/M
2 Staci Brown 5890 44 39 24:53.17 8:02/M
3 Stacy Sanders 4971 43 58 27:06.64 8:45/M
4 Lori Dubach 5675 41 60 27:16.51 8:48/M
5 Karin Clary 5121 46 61 27:20.00 8:49/M
6 Joanna Davis 5744 48 92 29:36.40 9:33/M
7 Wendy Trissel 5826 44 105 31:11.73 10:04/M
8 Natalie Zolicoffer 4988 45 108 31:22.84 10:07/M
9 Kelley White 4977 47 113 32:08.50 10:22/M
10 Marianne Lingg 4961 42 115 32:18.91 10:25/M
11 Andrea Oros 4991 45 122 32:59.40 10:38/M
12 Karrie Hutson 5715 47 134 35:14.40 11:22/M
13 Krissy Roberts 5700 41 143 36:39.29 11:49/M
14 Linda Reynolds 4906 44 150 38:23.73 12:23/M
15 Angie Cuson 5771 42 154 38:57.47 12:34/M
16 Christie Hostetler 3352 45 156 39:10.84 12:38/M
17 Lisa Hood 5698 45 157 39:11.88 12:38/M
18 Amy Morin 4975 47 173 43:44.69 14:06/M
19 Deanna Morris 4948 41 177 44:43.79 14:25/M
20 PATTI LORSUNG 5839 44 188 47:27.98 15:18/M
21 Kendra Phillips 5840 40 189 47:28.06 15:19/M
22 Jennifer Bilby 5696 45 190 47:44.10 15:24/M
23 Sara Weiderhaft 4741 44 194 48:34.83 15:40/M
24 Kara Jones 4994 45 203 49:56.62 16:06/M
25 ERIN MCGRATH 4984 41 210 51:34.72 16:38/M
26 Ronda Dehmer 5000 47 213 51:46.62 16:42/M
27 Melissa Glogoza 3027 43 225 54:03.74 17:26/M
28 Cheryl McClung 5900 49 228 55:20.96 17:51/M
29 Michele Maskell 5929 48 230 55:30.93 17:54/M
Top

Female 50 to 59

Place Name Team Bib No Age Overall Total Time Pace
1 Debbie Rush 4957 53 31 23:49.14 7:41/M
2 Joann CHAMBERS 5719 50 48 26:04.58 8:25/M
3 Emily Robison 5681 57 55 26:47.38 8:38/M
4 Carolyn McCutchen 5795 55 59 27:14.66 8:47/M
5 Kate Snedeker 4982 51 69 27:56.24 9:01/M
6 LESLEY Keller 5847 52 100 30:28.07 9:50/M
7 Jeanette Tonne 5746 56 101 30:32.80 9:51/M
8 Mary Brown 5877 54 110 31:49.86 10:16/M
9 KAREN WAGER 5855 59 136 35:39.76 11:30/M
10 Sandra Minkner 5873 59 147 37:43.11 12:10/M
11 LYNNE COVERDALE 5714 55 165 41:12.18 13:17/M
12 Kyra Krupa 5925 51 166 41:46.64 13:28/M
13 Genia Emry 5720 52 169 42:06.46 13:35/M
14 Jodi Tevault 5721 51 171 42:53.85 13:50/M
15 Ann Henriott 4976 50 174 43:44.85 14:06/M
16 Kimberly Campbell 4908 53 178 44:44.02 14:26/M
17 Lorri Brune 5741 56 193 48:25.00 15:37/M
18 Robin Wilson 5863 53 196 48:48.61 15:45/M
19 Tracy Hewitt 5918 56 197 48:54.97 15:46/M
20 Kathy Palmer 5702 58 200 49:08.28 15:51/M
21 Kara Krueger 4995 56 202 49:56.47 16:06/M
22 Terri Maynard 5759 53 206 50:46.01 16:23/M
23 Julie Larsh 5970 50 207 50:50.64 16:24/M
24 Kelley KELLY 5923 52 211 51:44.70 16:41/M
25 Mary Kay Schade 5946 56 212 51:44.75 16:41/M
26 Michelle Gahimer 5770 54 215 52:09.43 16:49/M
27 Deborah Sladen 5857 59 218 53:15.22 17:11/M
28 Cherie Fuller 4985 52 220 53:35.56 17:17/M
29 Cheryl Verkamp 5953 57 223 54:02.32 17:26/M
30 Rosie Dreyling 5870 56 226 54:10.29 17:28/M
31 Chris Lecrone 5926 54 227 54:59.86 17:44/M
Top

Female 60 to 69

Place Name Team Bib No Age Overall Total Time Pace
1 Mary Emery 5958 62 76 28:17.40 9:07/M
2 Darlene Jackson 5919 63 90 29:29.03 9:31/M
3 Nancy Canning 4966 61 99 30:19.60 9:47/M
4 Sharon Jeziorski 5733 66 142 36:37.66 11:49/M
5 Julia Cvetinovich 5687 60 167 41:48.20 13:29/M
6 Linda Poore 5940 65 179 45:11.93 14:35/M
7 MorningSun Kelly 5894 65 191 47:44.22 15:24/M
8 Cindy Burge 5706 69 208 51:28.14 16:36/M
9 Maura Skiba 5707 60 209 51:28.46 16:36/M
10 Carol Neil 5965 65 216 52:40.70 16:59/M
11 Lynnda Petersen 5695 66 217 52:42.91 17:00/M
Top

Female 70 and Over

Place Name Team Bib No Age Overall Total Time Pace
1 Linda Colglazier 5793 71 219 53:19.78 17:12/M
Top

Male Open Winners

Place Name Team Bib No Age Overall Total Time Pace
1 Mitchell Thomas 5951 32 1 17:02.52 5:30/M
Top

Male 19 and Under

Place Name Team Bib No Age Overall Total Time Pace
1 Matteo Rosio 5944 14 5 18:43.32 6:02/M
2 Owen Ferreri 5739 13 6 18:53.89 6:05/M
3 Sam Brown 5876 18 8 20:17.96 6:33/M
4 Luca Bonfitto 5874 18 9 20:18.01 6:33/M
5 Masan Kojima 5824 14 12 21:22.66 6:54/M
6 Andrew Reis 5764 15 18 22:28.76 7:15/M
7 Blaine Brown 5889 14 20 22:40.49 7:19/M
8 Jackson Clary 5122 10 38 24:48.76 8:00/M
9 Sullivan Meehan 4719 9 42 25:21.96 8:11/M
10 Luke Abbott 5690 8 43 25:27.45 8:13/M
11 Corwyn Barrows 5672 12 51 26:25.02 8:31/M
12 Everitt Smith 5834 10 66 27:37.33 8:55/M
13 Bryan Lecrone 5927 17 73 28:07.69 9:04/M
14 Ian Sanders 4970 15 82 28:31.57 9:12/M
15 Parks Roberts 5280 6 95 29:50.93 9:37/M
16 Kade Brown 5887 16 109 31:40.91 10:13/M
17 Dakota Elizondo 5711 10 127 34:18.11 11:04/M
18 Brody Brown 5888 17 141 36:28.75 11:46/M
19 Brandon Chaboya 4990 8 172 43:17.08 13:58/M
20 Tyler Larsh 5969 11 205 50:45.66 16:22/M
21 Andrew Dreyling 5869 16 231 57:17.50 18:29/M
Top

Male 20 to 29

Place Name Team Bib No Age Overall Total Time Pace
1 Scott Minton 4950 28 4 18:26.47 5:57/M
2 Josh Cummings 5903 27 85 28:41.38 9:15/M
3 Adam Blazier 5790 25 97 29:55.32 9:39/M
4 Humberto Romo Jr. 5884 27 106 31:15.32 10:05/M
5 Brian Holcombe 5758 24 140 36:15.19 11:42/M
6 JAMES WAGER 5955 28 176 44:35.93 14:23/M
Top

Male 30 to 39

Place Name Team Bib No Age Overall Total Time Pace
1 Nathan O’Rourke 5692 38 2 17:04.02 5:30/M
2 Joell Grisel 5804 39 7 18:55.22 6:06/M
3 Andy Wiscaver 5722 32 10 20:36.35 6:39/M
4 Cliff Walker 5676 35 13 21:30.17 6:56/M
5 Tyler Peters 5937 34 21 22:43.09 7:20/M
6 Louis Scavuzzo 4978 35 32 24:06.35 7:46/M
7 EVAN MAXFIELD 5931 33 41 25:14.97 8:08/M
8 Russ Crouse 5851 32 49 26:07.78 8:25/M
9 Jeremiah Chambers 4740 33 77 28:17.49 9:07/M
10 Timothy Roberts 5349 33 96 29:51.64 9:38/M
11 Joe Tonsing-Carter 5841 31 102 30:53.41 9:58/M
12 John Platte 5836 39 114 32:12.86 10:23/M
13 Paul Niziolek 5753 36 118 32:52.28 10:36/M
14 Mike Sigler 5777 31 145 36:51.63 11:53/M
15 Daniel Temple 5688 30 163 40:49.59 13:10/M
16 Drew Gerke 5915 32 164 40:54.57 13:12/M
17 David Boyd 3815 39 183 45:38.14 14:43/M
18 Michael Kemper 5785 38 187 47:16.01 15:15/M
19 JJ Elizondo 5710 34 204 50:12.28 16:12/M
Top

Male 40 to 49

Place Name Team Bib No Age Overall Total Time Pace
1 Jason Ferreri 5737 43 3 17:59.16 5:48/M
2 Steve Wallen 5731 48 16 22:21.75 7:13/M
3 Kirk Reis 5765 49 19 22:35.02 7:17/M
4 Kirk Smart 5950 43 30 23:41.91 7:38/M
5 Jeremy Phifer 5856 42 33 24:12.05 7:48/M
6 John Adams 5829 45 35 24:14.66 7:49/M
7 Richard Trissel 5825 44 53 26:39.84 8:36/M
8 Anthony Smith 5833 40 67 27:39.19 8:55/M
9 Christopher Barrows 5570 47 71 28:04.86 9:03/M
10 Tracey Brown 5891 49 74 28:13.36 9:06/M
11 Mike Seagrave 5947 43 81 28:31.02 9:12/M
12 Ramiro Garcia 5882 43 104 31:10.15 10:03/M
13 Brian Watson 5717 42 125 33:38.79 10:51/M
14 Brian Revercomb 5898 46 128 34:19.51 11:04/M
15 Jeffrey Mills 5963 49 130 34:36.16 11:10/M
16 David Tintelnot 5448 48 132 35:02.01 11:18/M
17 Chad Corcoran 5772 49 152 38:32.67 12:26/M
18 Enrique Elizondo 5709 42 168 42:01.34 13:33/M
19 Kevin Lingg 4960 43 184 46:22.37 14:57/M
20 Walter Glogoza 3024 44 221 54:01.68 17:25/M
Top

Male 50 to 59

Place Name Team Bib No Age Overall Total Time Pace
1 Andy Theal 5960 56 14 21:36.20 6:58/M
2 Felix Rippy 5959 56 22 22:45.57 7:20/M
3 Jeff Brown 5875 58 23 23:00.22 7:25/M
4 Greg Wyant 4951 50 25 23:15.04 7:30/M
5 Jon Davis 5743 54 26 23:17.00 7:31/M
6 Gregg Delong 5694 57 28 23:32.03 7:35/M
7 Jeff Eggert 5913 52 40 25:05.67 8:05/M
8 John Williams 5957 53 63 27:29.71 8:52/M
9 David Tonne 5748 57 65 27:34.95 8:54/M
10 Pat Redmond 5905 57 68 27:42.27 8:56/M
11 Ricky Hood 5697 50 72 28:06.04 9:04/M
12 Edward Wroblewski 5796 58 80 28:25.73 9:10/M
13 John Meyers 5961 54 88 29:16.03 9:26/M
14 Mike Ellis 4983 50 93 29:41.22 9:35/M
15 Mike Dewitt 5779 52 120 32:54.44 10:37/M
16 Michael Fitz 5914 51 124 33:15.23 10:44/M
17 ROBERT WAGER 5854 55 146 37:36.47 12:08/M
18 Andrew Verkamp 5954 58 224 54:03.19 17:26/M
Top

Male 60 to 69

Place Name Team Bib No Age Overall Total Time Pace
1 Ken Hays 3002 61 24 23:10.06 7:28/M
2 Greg Hueber 3023 69 56 27:00.29 8:43/M
3 Bill Kirsch 5745 69 62 27:22.05 8:50/M
4 Tom Steinmetz 5838 60 64 27:33.51 8:53/M
5 Steve Younce 5899 66 70 28:01.28 9:02/M
6 Tim Sanders 4969 67 89 29:18.24 9:27/M
7 Lary Brown 5892 61 175 44:21.23 14:18/M
8 Dennis Clevenger 5883 69 185 46:33.48 15:01/M
9 Greg Vollmer 5703 61 201 49:09.13 15:51/M
10 Jeff Rinker 3076 69 222 54:01.94 17:25/M
Top

Male 70 and Over

Place Name Team Bib No Age Overall Total Time Pace
1 Timothy List 5684 71 75 28:14.26 9:06/M
 

10k

Top

Female Open Winners

Place Name Team Bib No Age Overall Total Time Pace
1 Jillian Lee 3575 34 11 44:36.25 7:12/M
Top

Female 19 and Under

Place Name Team Bib No Age Overall Total Time Pace
1 Claire Niziolek 5755 9 91 1:18:09.71 12:36/M
Top

Female 20 to 29

Place Name Team Bib No Age Overall Total Time Pace
1 Payton Revolt 5902 27 25 49:33.29 8:00/M
2 Anastasia Luc 5886 26 37 56:29.58 9:07/M
3 Kelly Halstead 5685 29 46 58:48.16 9:29/M
4 Samantha Butts 4907 27 89 1:17:24.35 12:29/M
Top

Female 30 to 39

Place Name Team Bib No Age Overall Total Time Pace
1 Kristin Cronkhite 5680 33 24 49:25.98 7:58/M
2 Kelly Justak 5783 35 27 51:58.95 8:23/M
3 Danielle Giltner 5776 35 28 52:11.83 8:25/M
4 Nicole Danielson 3307 33 34 55:43.75 8:59/M
5 Emily Herron 3136 33 35 55:43.90 8:59/M
6 Kyra Bultman 4963 35 38 56:50.48 9:10/M
7 Catherine Hunter 5872 31 44 58:06.19 9:22/M
8 Meghan Gutierrez 5760 35 45 58:24.08 9:25/M
9 Lindsey Eaton 5686 34 47 58:49.08 9:29/M
10 Lainna Cohen 5910 33 49 1:01:07.53 9:51/M
11 Rachel Evans 3106 35 51 1:02:18.91 10:03/M
12 Lauren Caston 5683 31 52 1:02:31.70 10:05/M
13 Lori Feliciano 5569 39 64 1:06:01.55 10:39/M
14 Ashley Monroe 5844 34 68 1:07:43.15 10:55/M
15 LAUREN FISH 5141 31 72 1:08:41.85 11:05/M
16 Stacy Ware 5885 31 76 1:10:48.87 11:25/M
17 Ashley Risinger 5865 34 81 1:12:09.06 11:38/M
18 Nicole Johnson 5922 32 82 1:13:25.11 11:50/M
19 Jamie Meinert 5775 33 90 1:18:01.65 12:35/M
20 Lisa Niziolek 5754 37 92 1:18:10.15 12:36/M
21 Jennifer Parrish 5699 36 95 1:22:32.30 13:19/M
22 Christina collier 5911 34 96 1:23:35.23 13:29/M
23 Krista Phillippo 5938 32 97 1:25:26.90 13:47/M
24 Jen Roth 5832 37 98 1:27:32.59 14:07/M
Top

Female 40 to 49

Place Name Team Bib No Age Overall Total Time Pace
1 Trena Roudebush 5828 43 16 45:50.69 7:24/M
2 Alice Rademacher 4967 49 36 55:45.85 9:00/M
3 D’Lisa Patterson 5819 48 43 58:01.45 9:21/M
4 Paige Treptow 5809 45 61 1:05:41.40 10:36/M
5 Marlo Neustifter 4955 48 86 1:15:43.78 12:13/M
6 Courtney Corcoran 5773 48 88 1:16:10.72 12:17/M
7 Jeanette Hoeksema 5862 45 104 1:48:08.88 17:26/M
Top

Female 50 to 59

Place Name Team Bib No Age Overall Total Time Pace
1 Susannah Dyson 5724 57 29 52:46.15 8:31/M
2 Danica Baumgart 5782 53 32 55:01.65 8:52/M
3 Julie Redmond 5906 57 56 1:04:07.98 10:20/M
4 Robyn Hughes 5897 56 58 1:04:22.85 10:23/M
5 Melinda Fox 4992 54 60 1:04:39.66 10:26/M
6 Bonita Vollmer 4993 57 62 1:05:43.70 10:36/M
7 Traci Yohler 3778 58 66 1:07:17.85 10:51/M
8 Lori Starr 3776 54 67 1:07:17.95 10:51/M
9 Ann Bumb 5967 56 71 1:08:38.46 11:04/M
10 Dana Nakanishi 5742 52 75 1:10:02.11 11:18/M
11 Janet Shetterly 4968 52 78 1:11:14.23 11:29/M
12 Patti Vollmer 5704 57 84 1:14:40.90 12:03/M
13 Kimberly Collar 4954 57 87 1:15:44.71 12:13/M
14 Ronna Hunter 5835 55 93 1:21:29.67 13:09/M
15 Karen Archbold 5735 59 100 1:31:59.83 14:50/M
16 Penny Sluder 5818 57 103 1:48:04.23 17:26/M
Top

Male Open Winners

Place Name Team Bib No Age Overall Total Time Pace
1 Joseph Kitchell 5904 35 1 35:03.46 5:39/M
Top

Male No Age Provided

Place Name Team Bib No Age Overall Total Time Pace
1 John Riden 5807 65 1:06:56.03 10:48/M
Top

Male 19 and Under

Place Name Team Bib No Age Overall Total Time Pace
1 Axel Aleman 5908 16 6 43:14.30 6:58/M
2 William Phillips 5968 18 8 43:44.46 7:03/M
Top

Male 20 to 29

Place Name Team Bib No Age Overall Total Time Pace
1 Drew Wilson 5867 24 7 43:30.13 7:01/M
2 Ryan Jarboe 5920 26 18 46:18.07 7:28/M
3 Bryce Dickson 5749 26 40 57:21.86 9:15/M
4 Bryan Ramirez 5941 27 69 1:07:44.53 10:55/M
Top

Male 30 to 39

Place Name Team Bib No Age Overall Total Time Pace
1 Javier Aleman 5907 35 2 37:05.46 5:59/M
2 Dan Carney 3321 35 4 41:44.73 6:44/M
3 Bradley McMahon 5932 30 5 41:46.53 6:44/M
4 Sergio Cuautle 5912 30 9 43:47.71 7:04/M
5 Gilberto Cantu 5861 35 15 45:45.28 7:23/M
6 Nicholas Kohne 5792 32 19 46:19.44 7:28/M
7 Eric Uren 5678 33 26 51:06.48 8:15/M
8 Blake Rodier 5705 32 30 52:46.60 8:31/M
9 Paul Caston 5682 31 53 1:02:31.90 10:05/M
10 Jon Meinert 5774 36 70 1:08:03.35 10:59/M
11 Matt Harmon 5849 34 73 1:09:01.44 11:08/M
12 Shawn Plew 5815 39 83 1:13:29.29 11:51/M
13 Miguel Ruiz 5945 33 85 1:14:44.07 12:03/M
14 Seamus Boyce 5901 37 94 1:21:39.73 13:10/M
15 Aaron Roth 5831 38 99 1:27:32.65 14:07/M
Top

Male 40 to 49

Place Name Team Bib No Age Overall Total Time Pace
1 Scott Hartwell 5766 43 10 44:13.29 7:08/M
2 Jeffrey Rodgers 5943 48 20 46:43.99 7:32/M
3 Aaron McQuiston 5845 41 50 1:01:54.78 9:59/M
4 Jerry Dean 5728 46 54 1:02:41.92 10:07/M
5 Scott Zabinsky 5791 43 55 1:03:58.55 10:19/M
6 Blake Geyer 5761 44 77 1:11:03.94 11:28/M
7 Mark Baumgart 5781 48 102 1:47:28.11 17:20/M
Top

Male 50 to 59

Place Name Team Bib No Age Overall Total Time Pace
1 Perez Madison 4973 57 3 37:54.53 6:07/M
2 Norm Campbell 5708 53 12 45:09.78 7:17/M
3 Timothy Rupe 5217 53 13 45:19.49 7:19/M
4 Joseph Hawkins 5730 59 17 45:58.96 7:25/M
5 Barry Lutzke 5928 59 21 47:12.72 7:37/M
6 Ron Gable 5843 50 22 48:09.78 7:46/M
7 David Brune 5740 57 23 48:46.46 7:52/M
8 Chuck Krupa 5924 57 31 54:00.69 8:43/M
9 Paul Mullins 5935 56 33 55:22.22 8:56/M
10 William Dyson 5723 58 39 56:51.58 9:10/M
11 Fritz Krueger 5750 59 41 57:43.91 9:19/M
12 Craig Denney 4986 52 42 57:52.91 9:20/M
13 Thomas Hale 4962 58 48 1:00:12.45 9:43/M
14 Kevin Hewitt 5859 57 79 1:11:43.79 11:34/M
15 Alan Wilson 5858 57 80 1:11:44.38 11:34/M
16 Jim Gregory 5736 56 101 1:32:00.30 14:50/M
Top

Male 60 to 69

Place Name Team Bib No Age Overall Total Time Pace
1 Bumb James 5966 64 14 45:33.10 7:21/M
2 Eric Diamond 5896 60 59 1:04:26.96 10:24/M
3 William Staples 5140 63 63 1:05:53.01 10:38/M
4 WhiteWolf Kelly 5893 67 74 1:09:47.43 11:15/M
Top

Male 70 and Over

Place Name Team Bib No Age Overall Total Time Pace
1 dick whicker 5956 70 57 1:04:22.50 10:23/M

Upcoming Races